Terminal Aerodrome Forecast
Issued by NWS San Angelo, TX

Home | Current Version | Previous Version | Text Only | Print | Product List | Glossary On
Versions: 1 2 3 4 5 6 7 8 9 10 11 12 13 14 15 16 17 18 19
000
FTUS44 KSJT 152300
TAFSJT
TAF
KSJT 152320Z 1600/1624 17009KT P6SM SKC
     FM160800 18012G20KT P6SM SKC
     FM161400 19018G31KT P6SM BKN250=

USA.gov is the U.S. government's official web portal to all federal, state and local government web resources and services.